sensor_id;sensor_type;location;lat;lon;timestamp;P1;durP1;ratioP1;P2;durP2;ratioP2
75858;SDS011;64504;51.308;8.620;2023-03-01T00:02:24;14.15;;;8.88;;
75858;SDS011;64504;51.308;8.620;2023-03-01T00:04:53;13.32;;;8.35;;
75858;SDS011;64504;51.308;8.620;2023-03-01T00:07:19;11.57;;;9.10;;
75858;SDS011;64504;51.308;8.620;2023-03-01T00:09:45;12.25;;;8.02;;
75858;SDS011;64504;51.308;8.620;2023-03-01T00:12:11;12.15;;;9.18;;
75858;SDS011;64504;51.308;8.620;2023-03-01T00:14:36;13.02;;;9.73;;
75858;SDS011;64504;51.308;8.620;2023-03-01T00:17:03;14.00;;;9.98;;
75858;SDS011;64504;51.308;8.620;2023-03-01T00:19:28;14.77;;;8.93;;
75858;SDS011;64504;51.308;8.620;2023-03-01T00:21:54;11.48;;;8.90;;
75858;SDS011;64504;51.308;8.620;2023-03-01T00:24:19;10.27;;;7.03;;
75858;SDS011;64504;51.308;8.620;2023-03-01T00:26:45;18.67;;;9.98;;
75858;SDS011;64504;51.308;8.620;2023-03-01T00:29:11;17.35;;;10.55;;
75858;SDS011;64504;51.308;8.620;2023-03-01T00:31:37;13.50;;;7.75;;
75858;SDS011;64504;51.308;8.620;2023-03-01T00:34:03;8.55;;;7.70;;
75858;SDS011;64504;51.308;8.620;2023-03-01T00:36:31;9.02;;;7.63;;
75858;SDS011;64504;51.308;8.620;2023-03-01T00:38:58;10.88;;;8.15;;
75858;SDS011;64504;51.308;8.620;2023-03-01T00:41:24;13.75;;;8.60;;
75858;SDS011;64504;51.308;8.620;2023-03-01T00:43:51;11.35;;;8.68;;
75858;SDS011;64504;51.308;8.620;2023-03-01T00:46:18;13.00;;;9.25;;
75858;SDS011;64504;51.308;8.620;2023-03-01T00:48:45;9.23;;;7.03;;
75858;SDS011;64504;51.308;8.620;2023-03-01T00:51:12;20.20;;;9.73;;
75858;SDS011;64504;51.308;8.620;2023-03-01T00:53:52;7.82;;;7.10;;
75858;SDS011;64504;51.308;8.620;2023-03-01T00:56:22;18.92;;;8.85;;
75858;SDS011;64504;51.308;8.620;2023-03-01T00:58:47;15.25;;;8.90;;
75858;SDS011;64504;51.308;8.620;2023-03-01T01:01:14;12.50;;;9.82;;
75858;SDS011;64504;51.308;8.620;2023-03-01T01:03:52;10.50;;;9.07;;
75858;SDS011;64504;51.308;8.620;2023-03-01T01:06:20;10.98;;;8.23;;
75858;SDS011;64504;51.308;8.620;2023-03-01T01:08:47;12.60;;;8.27;;
75858;SDS011;64504;51.308;8.620;2023-03-01T01:11:13;15.65;;;9.27;;
75858;SDS011;64504;51.308;8.620;2023-03-01T01:13:43;12.18;;;9.02;;
75858;SDS011;64504;51.308;8.620;2023-03-01T01:16:10;14.93;;;9.27;;
75858;SDS011;64504;51.308;8.620;2023-03-01T01:18:35;11.73;;;8.25;;
75858;SDS011;64504;51.308;8.620;2023-03-01T01:21:05;12.60;;;9.60;;
75858;SDS011;64504;51.308;8.620;2023-03-01T01:23:36;13.52;;;9.32;;
75858;SDS011;64504;51.308;8.620;2023-03-01T01:26:17;17.75;;;10.88;;
75858;SDS011;64504;51.308;8.620;2023-03-01T01:28:50;12.00;;;7.40;;
75858;SDS011;64504;51.308;8.620;2023-03-01T01:31:15;10.15;;;7.80;;
75858;SDS011;64504;51.308;8.620;2023-03-01T01:33:41;12.00;;;9.75;;
75858;SDS011;64504;51.308;8.620;2023-03-01T01:36:07;9.48;;;7.18;;
75858;SDS011;64504;51.308;8.620;2023-03-01T01:38:33;15.82;;;10.18;;
75858;SDS011;64504;51.308;8.620;2023-03-01T01:40:58;9.00;;;8.10;;
75858;SDS011;64504;51.308;8.620;2023-03-01T01:43:35;9.55;;;7.90;;
75858;SDS011;64504;51.308;8.620;2023-03-01T01:46:25;11.70;;;10.30;;
75858;SDS011;64504;51.308;8.620;2023-03-01T01:48:56;14.23;;;9.27;;
75858;SDS011;64504;51.308;8.620;2023-03-01T01:51:25;11.93;;;9.68;;
75858;SDS011;64504;51.308;8.620;2023-03-01T01:53:56;12.02;;;8.75;;
75858;SDS011;64504;51.308;8.620;2023-03-01T01:56:24;13.30;;;7.95;;
75858;SDS011;64504;51.308;8.620;2023-03-01T01:58:51;13.60;;;11.25;;
75858;SDS011;64504;51.308;8.620;2023-03-01T02:01:16;9.93;;;7.47;;
75858;SDS011;64504;51.308;8.620;2023-03-01T02:03:43;16.13;;;9.60;;
75858;SDS011;64504;51.308;8.620;2023-03-01T02:06:31;15.90;;;9.73;;
75858;SDS011;64504;51.308;8.620;2023-03-01T02:09:00;12.97;;;11.20;;
75858;SDS011;64504;51.308;8.620;2023-03-01T02:11:29;16.33;;;10.45;;
75858;SDS011;64504;51.308;8.620;2023-03-01T02:13:55;11.80;;;9.10;;
75858;SDS011;64504;51.308;8.620;2023-03-01T02:16:20;13.10;;;9.70;;
75858;SDS011;64504;51.308;8.620;2023-03-01T02:18:46;12.00;;;9.63;;
75858;SDS011;64504;51.308;8.620;2023-03-01T02:21:26;11.75;;;10.38;;
75858;SDS011;64504;51.308;8.620;2023-03-01T02:24:11;13.32;;;9.93;;
75858;SDS011;64504;51.308;8.620;2023-03-01T02:26:50;12.35;;;10.98;;
75858;SDS011;64504;51.308;8.620;2023-03-01T02:29:17;19.73;;;10.00;;
75858;SDS011;64504;51.308;8.620;2023-03-01T02:31:43;15.27;;;9.68;;
75858;SDS011;64504;51.308;8.620;2023-03-01T02:34:10;8.95;;;8.05;;
75858;SDS011;64504;51.308;8.620;2023-03-01T02:36:38;14.35;;;11.38;;
75858;SDS011;64504;51.308;8.620;2023-03-01T02:39:06;14.13;;;8.70;;
75858;SDS011;64504;51.308;8.620;2023-03-01T02:41:39;14.07;;;11.30;;
75858;SDS011;64504;51.308;8.620;2023-03-01T02:44:06;15.50;;;10.82;;
75858;SDS011;64504;51.308;8.620;2023-03-01T02:46:33;9.98;;;7.57;;
75858;SDS011;64504;51.308;8.620;2023-03-01T02:49:00;16.80;;;8.68;;
75858;SDS011;64504;51.308;8.620;2023-03-01T02:56:54;15.67;;;11.43;;
75858;SDS011;64504;51.308;8.620;2023-03-01T02:59:21;9.97;;;8.70;;
75858;SDS011;64504;51.308;8.620;2023-03-01T03:01:48;14.70;;;11.02;;
75858;SDS011;64504;51.308;8.620;2023-03-01T03:04:14;20.53;;;14.20;;
75858;SDS011;64504;51.308;8.620;2023-03-01T03:06:46;16.45;;;11.15;;
75858;SDS011;64504;51.308;8.620;2023-03-01T03:09:13;15.77;;;12.63;;
75858;SDS011;64504;51.308;8.620;2023-03-01T03:11:39;16.52;;;13.15;;
75858;SDS011;64504;51.308;8.620;2023-03-01T03:14:06;12.00;;;10.18;;
75858;SDS011;64504;51.308;8.620;2023-03-01T03:16:45;16.60;;;10.63;;
75858;SDS011;64504;51.308;8.620;2023-03-01T03:19:23;15.98;;;10.52;;
75858;SDS011;64504;51.308;8.620;2023-03-01T03:21:56;17.73;;;10.70;;
75858;SDS011;64504;51.308;8.620;2023-03-01T03:24:22;14.73;;;10.93;;
75858;SDS011;64504;51.308;8.620;2023-03-01T03:26:48;16.05;;;11.65;;
75858;SDS011;64504;51.308;8.620;2023-03-01T03:29:13;22.95;;;11.25;;
75858;SDS011;64504;51.308;8.620;2023-03-01T03:31:38;12.07;;;10.93;;
75858;SDS011;64504;51.308;8.620;2023-03-01T03:34:04;12.60;;;9.95;;
75858;SDS011;64504;51.308;8.620;2023-03-01T03:36:30;19.08;;;12.45;;
75858;SDS011;64504;51.308;8.620;2023-03-01T03:38:58;16.42;;;12.57;;
75858;SDS011;64504;51.308;8.620;2023-03-01T03:41:34;15.27;;;10.73;;
75858;SDS011;64504;51.308;8.620;2023-03-01T03:44:00;14.90;;;10.73;;
75858;SDS011;64504;51.308;8.620;2023-03-01T03:46:25;15.80;;;9.57;;
75858;SDS011;64504;51.308;8.620;2023-03-01T03:48:51;14.63;;;10.60;;
75858;SDS011;64504;51.308;8.620;2023-03-01T03:51:17;12.70;;;10.15;;
75858;SDS011;64504;51.308;8.620;2023-03-01T03:53:43;11.82;;;10.40;;
75858;SDS011;64504;51.308;8.620;2023-03-01T03:56:09;14.80;;;10.00;;
75858;SDS011;64504;51.308;8.620;2023-03-01T03:58:35;11.68;;;10.57;;
75858;SDS011;64504;51.308;8.620;2023-03-01T04:01:01;16.65;;;11.55;;
75858;SDS011;64504;51.308;8.620;2023-03-01T04:03:27;17.67;;;11.57;;
75858;SDS011;64504;51.308;8.620;2023-03-01T04:05:53;24.23;;;13.32;;
75858;SDS011;64504;51.308;8.620;2023-03-01T04:08:19;14.00;;;12.35;;
75858;SDS011;64504;51.308;8.620;2023-03-01T04:10:47;15.30;;;9.68;;
75858;SDS011;64504;51.308;8.620;2023-03-01T04:13:15;14.43;;;11.02;;
75858;SDS011;64504;51.308;8.620;2023-03-01T04:15:46;14.48;;;11.88;;
75858;SDS011;64504;51.308;8.620;2023-03-01T04:18:13;13.60;;;11.90;;
75858;SDS011;64504;51.308;8.620;2023-03-01T04:20:40;18.03;;;11.57;;
75858;SDS011;64504;51.308;8.620;2023-03-01T04:23:07;20.33;;;11.73;;
75858;SDS011;64504;51.308;8.620;2023-03-01T04:25:55;17.33;;;12.60;;
75858;SDS011;64504;51.308;8.620;2023-03-01T04:28:22;15.13;;;13.23;;
75858;SDS011;64504;51.308;8.620;2023-03-01T04:31:05;19.47;;;14.63;;
75858;SDS011;64504;51.308;8.620;2023-03-01T04:33:43;17.77;;;12.77;;
75858;SDS011;64504;51.308;8.620;2023-03-01T04:36:13;15.70;;;12.63;;
75858;SDS011;64504;51.308;8.620;2023-03-01T04:38:40;18.70;;;12.23;;
75858;SDS011;64504;51.308;8.620;2023-03-01T04:41:06;20.20;;;12.83;;
75858;SDS011;64504;51.308;8.620;2023-03-01T04:43:33;18.90;;;12.90;;
75858;SDS011;64504;51.308;8.620;2023-03-01T04:46:18;14.43;;;9.83;;
75858;SDS011;64504;51.308;8.620;2023-03-01T04:48:45;14.63;;;10.82;;
75858;SDS011;64504;51.308;8.620;2023-03-01T04:51:12;14.87;;;12.70;;
75858;SDS011;64504;51.308;8.620;2023-03-01T04:53:41;17.57;;;12.50;;
75858;SDS011;64504;51.308;8.620;2023-03-01T04:56:07;23.87;;;11.30;;
75858;SDS011;64504;51.308;8.620;2023-03-01T04:58:32;17.90;;;11.13;;
75858;SDS011;64504;51.308;8.620;2023-03-01T05:00:58;18.57;;;12.37;;
75858;SDS011;64504;51.308;8.620;2023-03-01T05:03:24;23.58;;;13.10;;
75858;SDS011;64504;51.308;8.620;2023-03-01T05:05:51;16.13;;;12.57;;
75858;SDS011;64504;51.308;8.620;2023-03-01T05:08:17;16.20;;;13.17;;
75858;SDS011;64504;51.308;8.620;2023-03-01T05:10:43;20.83;;;11.20;;
75858;SDS011;64504;51.308;8.620;2023-03-01T05:13:19;15.07;;;12.85;;
75858;SDS011;64504;51.308;8.620;2023-03-01T05:15:52;17.38;;;12.05;;
75858;SDS011;64504;51.308;8.620;2023-03-01T05:18:19;23.23;;;13.23;;
75858;SDS011;64504;51.308;8.620;2023-03-01T05:20:44;16.63;;;14.43;;
75858;SDS011;64504;51.308;8.620;2023-03-01T05:23:10;16.52;;;12.93;;
75858;SDS011;64504;51.308;8.620;2023-03-01T05:25:39;17.13;;;12.97;;
75858;SDS011;64504;51.308;8.620;2023-03-01T05:28:20;17.27;;;11.67;;
75858;SDS011;64504;51.308;8.620;2023-03-01T05:30:46;22.33;;;12.00;;
75858;SDS011;64504;51.308;8.620;2023-03-01T05:33:12;27.53;;;18.37;;
75858;SDS011;64504;51.308;8.620;2023-03-01T05:35:40;24.95;;;14.90;;
75858;SDS011;64504;51.308;8.620;2023-03-01T05:38:07;17.42;;;13.32;;
75858;SDS011;64504;51.308;8.620;2023-03-01T05:40:33;16.95;;;12.35;;
75858;SDS011;64504;51.308;8.620;2023-03-01T05:42:59;14.77;;;11.95;;
75858;SDS011;64504;51.308;8.620;2023-03-01T05:45:25;20.17;;;12.47;;
75858;SDS011;64504;51.308;8.620;2023-03-01T05:47:53;15.57;;;13.40;;
75858;SDS011;64504;51.308;8.620;2023-03-01T05:50:23;18.47;;;11.77;;
75858;SDS011;64504;51.308;8.620;2023-03-01T05:52:51;15.33;;;10.73;;
75858;SDS011;64504;51.308;8.620;2023-03-01T05:55:27;17.47;;;13.27;;
75858;SDS011;64504;51.308;8.620;2023-03-01T05:57:53;20.20;;;11.10;;
75858;SDS011;64504;51.308;8.620;2023-03-01T06:00:19;18.98;;;13.27;;
75858;SDS011;64504;51.308;8.620;2023-03-01T06:02:48;21.90;;;12.90;;
75858;SDS011;64504;51.308;8.620;2023-03-01T06:05:14;23.93;;;14.30;;
75858;SDS011;64504;51.308;8.620;2023-03-01T06:07:40;17.83;;;12.60;;
75858;SDS011;64504;51.308;8.620;2023-03-01T06:10:06;14.77;;;12.57;;
75858;SDS011;64504;51.308;8.620;2023-03-01T06:12:33;14.30;;;10.43;;
75858;SDS011;64504;51.308;8.620;2023-03-01T06:14:59;15.97;;;11.20;;
75858;SDS011;64504;51.308;8.620;2023-03-01T06:17:26;21.00;;;11.90;;
75858;SDS011;64504;51.308;8.620;2023-03-01T06:19:54;20.93;;;13.93;;
75858;SDS011;64504;51.308;8.620;2023-03-01T06:22:19;12.83;;;9.87;;
75858;SDS011;64504;51.308;8.620;2023-03-01T06:24:45;22.57;;;11.50;;
75858;SDS011;64504;51.308;8.620;2023-03-01T06:27:10;12.13;;;10.90;;
75858;SDS011;64504;51.308;8.620;2023-03-01T06:29:36;18.17;;;14.67;;
75858;SDS011;64504;51.308;8.620;2023-03-01T06:32:02;15.67;;;14.00;;
75858;SDS011;64504;51.308;8.620;2023-03-01T06:34:27;19.03;;;11.77;;
75858;SDS011;64504;51.308;8.620;2023-03-01T06:36:53;17.10;;;13.40;;
75858;SDS011;64504;51.308;8.620;2023-03-01T06:39:18;17.88;;;14.10;;
75858;SDS011;64504;51.308;8.620;2023-03-01T06:41:45;15.37;;;12.40;;
75858;SDS011;64504;51.308;8.620;2023-03-01T06:44:11;19.27;;;13.07;;
75858;SDS011;64504;51.308;8.620;2023-03-01T06:46:38;26.25;;;14.27;;
75858;SDS011;64504;51.308;8.620;2023-03-01T06:49:04;17.95;;;10.98;;
75858;SDS011;64504;51.308;8.620;2023-03-01T06:51:36;17.17;;;11.70;;
75858;SDS011;64504;51.308;8.620;2023-03-01T06:54:03;14.65;;;11.25;;
75858;SDS011;64504;51.308;8.620;2023-03-01T06:56:29;20.10;;;11.43;;
75858;SDS011;64504;51.308;8.620;2023-03-01T06:58:55;16.38;;;12.35;;
75858;SDS011;64504;51.308;8.620;2023-03-01T07:01:21;20.40;;;14.98;;
75858;SDS011;64504;51.308;8.620;2023-03-01T07:03:47;25.45;;;13.38;;
75858;SDS011;64504;51.308;8.620;2023-03-01T07:06:12;18.42;;;12.75;;
75858;SDS011;64504;51.308;8.620;2023-03-01T07:08:37;15.88;;;12.27;;
75858;SDS011;64504;51.308;8.620;2023-03-01T07:11:03;12.93;;;11.60;;
75858;SDS011;64504;51.308;8.620;2023-03-01T07:13:29;19.27;;;13.65;;
75858;SDS011;64504;51.308;8.620;2023-03-01T07:15:54;16.95;;;14.18;;
75858;SDS011;64504;51.308;8.620;2023-03-01T07:18:20;14.07;;;12.60;;
75858;SDS011;64504;51.308;8.620;2023-03-01T07:20:45;19.50;;;11.65;;
75858;SDS011;64504;51.308;8.620;2023-03-01T07:23:10;15.23;;;11.98;;
75858;SDS011;64504;51.308;8.620;2023-03-01T07:25:36;9.60;;;8.52;;
75858;SDS011;64504;51.308;8.620;2023-03-01T07:28:02;13.15;;;10.20;;
75858;SDS011;64504;51.308;8.620;2023-03-01T07:30:28;15.95;;;10.80;;
75858;SDS011;64504;51.308;8.620;2023-03-01T07:32:57;9.70;;;7.90;;
75858;SDS011;64504;51.308;8.620;2023-03-01T07:35:26;13.73;;;9.52;;
75858;SDS011;64504;51.308;8.620;2023-03-01T07:37:52;10.95;;;8.48;;
75858;SDS011;64504;51.308;8.620;2023-03-01T07:40:18;12.20;;;7.25;;
75858;SDS011;64504;51.308;8.620;2023-03-01T07:42:44;11.48;;;8.60;;
75858;SDS011;64504;51.308;8.620;2023-03-01T07:45:10;7.30;;;6.57;;
75858;SDS011;64504;51.308;8.620;2023-03-01T07:47:36;15.95;;;8.23;;
75858;SDS011;64504;51.308;8.620;2023-03-01T07:50:02;6.47;;;5.57;;
75858;SDS011;64504;51.308;8.620;2023-03-01T07:52:29;7.78;;;6.20;;
75858;SDS011;64504;51.308;8.620;2023-03-01T07:54:55;6.88;;;6.10;;
75858;SDS011;64504;51.308;8.620;2023-03-01T07:57:21;11.02;;;7.07;;
75858;SDS011;64504;51.308;8.620;2023-03-01T07:59:47;9.57;;;5.78;;
75858;SDS011;64504;51.308;8.620;2023-03-01T08:02:13;9.85;;;5.72;;
75858;SDS011;64504;51.308;8.620;2023-03-01T08:04:40;5.30;;;4.72;;
75858;SDS011;64504;51.308;8.620;2023-03-01T08:07:06;6.45;;;5.85;;
75858;SDS011;64504;51.308;8.620;2023-03-01T08:09:31;7.35;;;4.85;;
75858;SDS011;64504;51.308;8.620;2023-03-01T08:11:57;7.53;;;4.88;;
75858;SDS011;64504;51.308;8.620;2023-03-01T08:14:24;5.95;;;5.28;;
75858;SDS011;64504;51.308;8.620;2023-03-01T08:16:50;5.65;;;5.05;;
75858;SDS011;64504;51.308;8.620;2023-03-01T08:19:15;4.82;;;4.38;;
75858;SDS011;64504;51.308;8.620;2023-03-01T08:21:42;7.22;;;4.65;;
75858;SDS011;64504;51.308;8.620;2023-03-01T08:24:08;5.78;;;4.78;;
75858;SDS011;64504;51.308;8.620;2023-03-01T08:26:35;6.10;;;4.57;;
75858;SDS011;64504;51.308;8.620;2023-03-01T08:29:01;6.82;;;5.00;;
75858;SDS011;64504;51.308;8.620;2023-03-01T08:31:28;4.78;;;4.30;;
75858;SDS011;64504;51.308;8.620;2023-03-01T08:33:58;6.80;;;4.28;;
75858;SDS011;64504;51.308;8.620;2023-03-01T08:36:26;10.88;;;5.82;;
75858;SDS011;64504;51.308;8.620;2023-03-01T08:38:53;5.25;;;4.65;;
75858;SDS011;64504;51.308;8.620;2023-03-01T08:41:18;8.07;;;5.00;;
75858;SDS011;64504;51.308;8.620;2023-03-01T08:43:44;6.43;;;4.82;;
75858;SDS011;64504;51.308;8.620;2023-03-01T08:46:11;7.40;;;5.70;;
75858;SDS011;64504;51.308;8.620;2023-03-01T08:48:36;5.93;;;5.32;;
75858;SDS011;64504;51.308;8.620;2023-03-01T08:51:09;14.32;;;5.28;;
75858;SDS011;64504;51.308;8.620;2023-03-01T08:53:38;7.60;;;5.65;;
75858;SDS011;64504;51.308;8.620;2023-03-01T08:56:04;6.95;;;6.35;;
75858;SDS011;64504;51.308;8.620;2023-03-01T08:58:30;10.38;;;6.13;;
75858;SDS011;64504;51.308;8.620;2023-03-01T09:00:57;8.52;;;5.85;;
75858;SDS011;64504;51.308;8.620;2023-03-01T09:03:23;9.98;;;6.22;;
75858;SDS011;64504;51.308;8.620;2023-03-01T09:05:49;8.85;;;6.32;;
75858;SDS011;64504;51.308;8.620;2023-03-01T09:08:16;7.47;;;5.65;;
75858;SDS011;64504;51.308;8.620;2023-03-01T09:10:43;5.70;;;5.07;;
75858;SDS011;64504;51.308;8.620;2023-03-01T09:13:08;6.72;;;5.78;;
75858;SDS011;64504;51.308;8.620;2023-03-01T09:15:34;10.10;;;5.70;;
75858;SDS011;64504;51.308;8.620;2023-03-01T09:18:03;5.80;;;5.30;;
75858;SDS011;64504;51.308;8.620;2023-03-01T09:20:29;6.63;;;5.53;;
75858;SDS011;64504;51.308;8.620;2023-03-01T09:22:55;9.50;;;6.55;;
75858;SDS011;64504;51.308;8.620;2023-03-01T09:25:21;7.32;;;4.85;;
75858;SDS011;64504;51.308;8.620;2023-03-01T09:27:50;6.03;;;5.05;;
75858;SDS011;64504;51.308;8.620;2023-03-01T09:30:16;5.68;;;5.00;;
75858;SDS011;64504;51.308;8.620;2023-03-01T09:32:42;9.43;;;6.38;;
75858;SDS011;64504;51.308;8.620;2023-03-01T09:35:07;8.13;;;6.35;;
75858;SDS011;64504;51.308;8.620;2023-03-01T09:37:34;6.55;;;5.45;;
75858;SDS011;64504;51.308;8.620;2023-03-01T09:40:00;8.75;;;6.13;;
75858;SDS011;64504;51.308;8.620;2023-03-01T09:42:26;7.95;;;5.85;;
75858;SDS011;64504;51.308;8.620;2023-03-01T09:45:05;6.72;;;5.95;;
75858;SDS011;64504;51.308;8.620;2023-03-01T09:47:36;5.22;;;4.60;;
75858;SDS011;64504;51.308;8.620;2023-03-01T09:50:04;8.27;;;5.85;;
75858;SDS011;64504;51.308;8.620;2023-03-01T09:54:59;7.28;;;4.82;;
75858;SDS011;64504;51.308;8.620;2023-03-01T09:58:18;7.43;;;4.97;;
75858;SDS011;64504;51.308;8.620;2023-03-01T10:00:46;6.88;;;5.15;;
75858;SDS011;64504;51.308;8.620;2023-03-01T10:06:01;7.40;;;5.97;;
75858;SDS011;64504;51.308;8.620;2023-03-01T10:08:34;7.35;;;4.50;;
75858;SDS011;64504;51.308;8.620;2023-03-01T10:11:04;7.70;;;4.97;;
75858;SDS011;64504;51.308;8.620;2023-03-01T10:19:15;6.55;;;6.00;;
75858;SDS011;64504;51.308;8.620;2023-03-01T10:21:45;7.72;;;5.70;;
75858;SDS011;64504;51.308;8.620;2023-03-01T10:24:15;7.60;;;6.85;;
75858;SDS011;64504;51.308;8.620;2023-03-01T10:29:20;5.60;;;4.95;;
75858;SDS011;64504;51.308;8.620;2023-03-01T10:31:50;8.25;;;4.45;;
75858;SDS011;64504;51.308;8.620;2023-03-01T10:34:18;6.93;;;4.97;;
75858;SDS011;64504;51.308;8.620;2023-03-01T10:36:47;7.28;;;5.93;;
75858;SDS011;64504;51.308;8.620;2023-03-01T10:39:19;6.72;;;6.03;;
75858;SDS011;64504;51.308;8.620;2023-03-01T10:44:44;7.35;;;4.90;;
75858;SDS011;64504;51.308;8.620;2023-03-01T10:47:21;6.18;;;4.80;;
75858;SDS011;64504;51.308;8.620;2023-03-01T10:49:57;11.50;;;5.85;;
75858;SDS011;64504;51.308;8.620;2023-03-01T10:58:05;8.00;;;5.28;;
75858;SDS011;64504;51.308;8.620;2023-03-01T11:01:04;6.35;;;5.38;;
75858;SDS011;64504;51.308;8.620;2023-03-01T11:03:33;7.80;;;5.65;;
75858;SDS011;64504;51.308;8.620;2023-03-01T11:06:19;9.02;;;4.97;;
75858;SDS011;64504;51.308;8.620;2023-03-01T11:08:47;5.68;;;4.18;;
75858;SDS011;64504;51.308;8.620;2023-03-01T11:14:00;6.10;;;4.63;;
75858;SDS011;64504;51.308;8.620;2023-03-01T11:18:57;6.00;;;5.45;;
75858;SDS011;64504;51.308;8.620;2023-03-01T11:21:24;5.75;;;5.25;;
75858;SDS011;64504;51.308;8.620;2023-03-01T11:23:51;11.50;;;4.78;;
75858;SDS011;64504;51.308;8.620;2023-03-01T11:26:17;6.80;;;5.28;;
75858;SDS011;64504;51.308;8.620;2023-03-01T11:28:43;6.35;;;4.90;;
75858;SDS011;64504;51.308;8.620;2023-03-01T11:31:13;7.22;;;6.57;;
75858;SDS011;64504;51.308;8.620;2023-03-01T11:33:47;10.27;;;6.13;;
75858;SDS011;64504;51.308;8.620;2023-03-01T11:38:50;5.70;;;4.72;;
75858;SDS011;64504;51.308;8.620;2023-03-01T11:41:18;5.72;;;4.95;;
75858;SDS011;64504;51.308;8.620;2023-03-01T11:46:37;9.52;;;5.22;;
75858;SDS011;64504;51.308;8.620;2023-03-01T11:52:00;12.35;;;6.18;;
75858;SDS011;64504;51.308;8.620;2023-03-01T11:58:14;9.35;;;5.22;;
75858;SDS011;64504;51.308;8.620;2023-03-01T12:00:53;6.32;;;5.55;;
75858;SDS011;64504;51.308;8.620;2023-03-01T12:28:51;8.30;;;6.03;;
75858;SDS011;64504;51.308;8.620;2023-03-01T12:37:15;9.60;;;5.78;;
75858;SDS011;64504;51.308;8.620;2023-03-01T12:40:15;9.90;;;6.45;;
75858;SDS011;64504;51.308;8.620;2023-03-01T12:43:12;8.32;;;5.88;;
75858;SDS011;64504;51.308;8.620;2023-03-01T12:51:24;10.82;;;8.02;;
75858;SDS011;64504;51.308;8.620;2023-03-01T12:53:53;20.45;;;15.13;;
75858;SDS011;64504;51.308;8.620;2023-03-01T12:56:24;9.05;;;8.00;;
75858;SDS011;64504;51.308;8.620;2023-03-01T12:59:01;8.00;;;6.70;;
75858;SDS011;64504;51.308;8.620;2023-03-01T13:17:53;9.40;;;7.07;;
75858;SDS011;64504;51.308;8.620;2023-03-01T13:20:20;10.82;;;8.65;;
75858;SDS011;64504;51.308;8.620;2023-03-01T13:23:11;19.15;;;9.07;;
75858;SDS011;64504;51.308;8.620;2023-03-01T13:31:07;10.43;;;8.57;;
75858;SDS011;64504;51.308;8.620;2023-03-01T13:42:00;8.50;;;7.50;;
75858;SDS011;64504;51.308;8.620;2023-03-01T13:44:29;14.05;;;7.93;;
75858;SDS011;64504;51.308;8.620;2023-03-01T13:47:14;9.02;;;8.10;;
75858;SDS011;64504;51.308;8.620;2023-03-01T13:52:37;12.77;;;8.18;;
75858;SDS011;64504;51.308;8.620;2023-03-01T13:55:06;13.90;;;8.20;;
75858;SDS011;64504;51.308;8.620;2023-03-01T13:57:45;10.65;;;6.63;;
75858;SDS011;64504;51.308;8.620;2023-03-01T14:00:25;11.85;;;8.90;;
75858;SDS011;64504;51.308;8.620;2023-03-01T14:03:00;10.93;;;7.20;;
75858;SDS011;64504;51.308;8.620;2023-03-01T14:07:57;9.18;;;7.68;;
75858;SDS011;64504;51.308;8.620;2023-03-01T14:10:25;12.80;;;7.55;;
75858;SDS011;64504;51.308;8.620;2023-03-01T14:16:47;13.02;;;9.27;;
75858;SDS011;64504;51.308;8.620;2023-03-01T14:21:45;8.98;;;7.22;;
75858;SDS011;64504;51.308;8.620;2023-03-01T14:24:20;14.15;;;8.35;;
75858;SDS011;64504;51.308;8.620;2023-03-01T14:26:47;9.60;;;8.68;;
75858;SDS011;64504;51.308;8.620;2023-03-01T14:29:27;12.13;;;6.93;;
75858;SDS011;64504;51.308;8.620;2023-03-01T14:31:54;8.93;;;7.68;;
75858;SDS011;64504;51.308;8.620;2023-03-01T14:34:21;11.88;;;7.90;;
75858;SDS011;64504;51.308;8.620;2023-03-01T14:36:49;9.57;;;7.72;;
75858;SDS011;64504;51.308;8.620;2023-03-01T14:39:33;10.95;;;6.60;;
75858;SDS011;64504;51.308;8.620;2023-03-01T14:41:58;10.57;;;7.93;;
75858;SDS011;64504;51.308;8.620;2023-03-01T14:44:24;10.07;;;8.20;;
75858;SDS011;64504;51.308;8.620;2023-03-01T14:46:56;9.18;;;7.22;;
75858;SDS011;64504;51.308;8.620;2023-03-01T14:49:24;12.20;;;8.30;;
75858;SDS011;64504;51.308;8.620;2023-03-01T14:52:03;10.38;;;8.38;;
75858;SDS011;64504;51.308;8.620;2023-03-01T14:59:48;9.18;;;7.13;;
75858;SDS011;64504;51.308;8.620;2023-03-01T15:02:16;9.93;;;7.32;;
75858;SDS011;64504;51.308;8.620;2023-03-01T15:04:48;8.43;;;6.95;;
75858;SDS011;64504;51.308;8.620;2023-03-01T15:07:15;11.02;;;7.88;;
75858;SDS011;64504;51.308;8.620;2023-03-01T15:09:40;9.95;;;6.75;;
75858;SDS011;64504;51.308;8.620;2023-03-01T15:14:50;9.93;;;8.20;;
75858;SDS011;64504;51.308;8.620;2023-03-01T15:17:23;10.50;;;7.60;;
75858;SDS011;64504;51.308;8.620;2023-03-01T15:19:54;16.70;;;7.82;;
75858;SDS011;64504;51.308;8.620;2023-03-01T15:22:19;9.02;;;7.45;;
75858;SDS011;64504;51.308;8.620;2023-03-01T15:24:48;11.73;;;7.03;;
75858;SDS011;64504;51.308;8.620;2023-03-01T15:27:15;13.02;;;7.07;;
75858;SDS011;64504;51.308;8.620;2023-03-01T15:29:47;14.75;;;9.25;;
75858;SDS011;64504;51.308;8.620;2023-03-01T15:34:58;10.32;;;8.68;;
75858;SDS011;64504;51.308;8.620;2023-03-01T15:37:44;15.35;;;10.02;;
75858;SDS011;64504;51.308;8.620;2023-03-01T15:42:56;11.02;;;7.13;;
75858;SDS011;64504;51.308;8.620;2023-03-01T15:45:26;11.85;;;7.95;;
75858;SDS011;64504;51.308;8.620;2023-03-01T15:47:56;8.52;;;6.80;;
75858;SDS011;64504;51.308;8.620;2023-03-01T15:50:27;12.20;;;6.95;;
75858;SDS011;64504;51.308;8.620;2023-03-01T15:52:54;11.10;;;8.07;;
75858;SDS011;64504;51.308;8.620;2023-03-01T15:55:24;11.48;;;8.07;;
75858;SDS011;64504;51.308;8.620;2023-03-01T15:58:03;14.15;;;7.70;;
75858;SDS011;64504;51.308;8.620;2023-03-01T16:00:38;11.15;;;7.47;;
75858;SDS011;64504;51.308;8.620;2023-03-01T16:03:04;9.05;;;6.32;;
75858;SDS011;64504;51.308;8.620;2023-03-01T16:05:32;9.43;;;7.10;;
75858;SDS011;64504;51.308;8.620;2023-03-01T16:07:59;9.05;;;7.78;;
75858;SDS011;64504;51.308;8.620;2023-03-01T16:10:25;16.40;;;7.82;;
75858;SDS011;64504;51.308;8.620;2023-03-01T16:12:52;14.70;;;6.40;;
75858;SDS011;64504;51.308;8.620;2023-03-01T16:17:45;10.80;;;7.65;;
75858;SDS011;64504;51.308;8.620;2023-03-01T16:20:11;17.63;;;8.32;;
75858;SDS011;64504;51.308;8.620;2023-03-01T16:22:37;16.23;;;8.68;;
75858;SDS011;64504;51.308;8.620;2023-03-01T16:25:05;12.23;;;7.45;;
75858;SDS011;64504;51.308;8.620;2023-03-01T16:27:31;10.82;;;6.68;;
75858;SDS011;64504;51.308;8.620;2023-03-01T16:29:56;10.05;;;7.00;;
75858;SDS011;64504;51.308;8.620;2023-03-01T16:32:21;8.52;;;7.65;;
75858;SDS011;64504;51.308;8.620;2023-03-01T16:34:47;6.57;;;5.57;;
75858;SDS011;64504;51.308;8.620;2023-03-01T16:37:14;11.27;;;7.80;;
75858;SDS011;64504;51.308;8.620;2023-03-01T16:39:40;16.13;;;7.93;;
75858;SDS011;64504;51.308;8.620;2023-03-01T16:42:06;20.20;;;8.27;;
75858;SDS011;64504;51.308;8.620;2023-03-01T16:44:31;8.52;;;6.28;;
75858;SDS011;64504;51.308;8.620;2023-03-01T16:46:57;12.27;;;7.63;;
75858;SDS011;64504;51.308;8.620;2023-03-01T16:49:22;10.63;;;7.03;;
75858;SDS011;64504;51.308;8.620;2023-03-01T16:51:48;12.48;;;8.07;;
75858;SDS011;64504;51.308;8.620;2023-03-01T16:54:13;16.45;;;7.43;;
75858;SDS011;64504;51.308;8.620;2023-03-01T16:56:39;13.15;;;8.02;;
75858;SDS011;64504;51.308;8.620;2023-03-01T16:59:05;10.98;;;6.90;;
75858;SDS011;64504;51.308;8.620;2023-03-01T17:01:31;12.05;;;6.75;;
75858;SDS011;64504;51.308;8.620;2023-03-01T17:04:02;15.88;;;11.05;;